Stephenville, Canada
Current Conditions -  °F | °C
As of 5:00 AM on Friday 19 Dec 2014 (Local Time) from CYJT Reporting Station
Light Rain Light Rain  
Wind Chill:   Ceiling: 1800
Heat Index:   Visibility: 15mi
Dew Point:   Wind: 2mph
Humidity: 93%   Direction: 300°WNW
Pressure: 29.35"   Gusts: NA
Location:  48.55°N, 58.58°W
Report Text: CYJT 190800Z 30002KT 15SM -RA OVC018 04/03 A2935 RMK SC8 SLP940
Loading
Personal Weather Stations






























Interactive Weather Map New forecast layout! Learn more

10-Day Weather Forecast

Advertisements
Track Severe Weather on mobile